Terminal Aerodrome Forecast
Issued by NWS North Platte, NE

Home | Current Version | Previous Version | Text Only | Print | Product List | Glossary On
Versions: 1 2 3 4 5 6 7 8 9 10 11 12 13 14 15 16 17 18 19 20 21 22 23 24
333
FTUS43 KLBF 152320
TAFLBF
TAF
KLBF 152320Z 1600/1624 15008KT P6SM FEW250
     FM160600 16007KT P6SM BKN250 WS015/20040KT
     FM161300 16007KT P6SM SCT250
     FM161500 17011G18KT P6SM SCT250
     FM161800 17017G24KT P6SM SCT250=

USA.gov is the U.S. government's official web portal to all federal, state and local government web resources and services.